Time;durP1;ratioP1;P1;durP2;ratioP2;P2;SDS_P1;SDS_P2;PMS_P1;PMS_P2;Temp;Humidity;BMP_temperature;BMP_pressure;BME280_temperature;BME280_humidity;BME280_pressure;Samples;Min_cycle;Max_cycle;Signal;HPM_P1;HPM_P2
2023/01/24 00:01:31;;;;;;;18.33;12.43;;;0.80;35.90;;;;;;4974848;28;20560;-56
2023/01/24 00:03:58;;;;;;;19.60;14.07;;;0.80;34.40;;;;;;4974862;28;20591;-56
2023/01/24 00:06:24;;;;;;;22.00;13.23;;;0.80;34.30;;;;;;4969738;28;20640;-55
2023/01/24 00:08:51;;;;;;;19.33;12.83;;;0.80;39.10;;;;;;4971608;28;20575;-56
2023/01/24 00:11:17;;;;;;;17.60;12.37;;;0.80;34.10;;;;;;4971351;28;20572;-55
2023/01/24 00:13:44;;;;;;;14.43;12.00;;;0.70;39.30;;;;;;4973980;28;20908;-56
2023/01/24 00:16:14;;;;;;;14.37;10.50;;;0.70;43.50;;;;;;4973030;28;20541;-57
2023/01/24 00:18:40;;;;;;;16.20;11.30;;;0.70;43.50;;;;;;4973355;28;20520;-56
2023/01/24 00:21:11;;;;;;;12.20;10.87;;;0.70;44.70;;;;;;4972605;28;21034;-56
2023/01/24 00:23:39;;;;;;;14.53;10.57;;;0.60;47.20;;;;;;4971476;28;20456;-56
2023/01/24 00:26:06;;;;;;;12.33;10.17;;;0.60;48.60;;;;;;4971741;28;20471;-56
2023/01/24 00:28:33;;;;;;;14.80;10.90;;;0.60;53.00;;;;;;4978557;28;20554;-56
2023/01/24 00:31:00;;;;;;;18.50;12.17;;;0.60;49.70;;;;;;4975597;28;20587;-56
2023/01/24 00:33:28;;;;;;;13.20;10.50;;;0.60;49.10;;;;;;4970115;28;20580;-55
2023/01/24 00:35:55;;;;;;;12.10;10.00;;;0.60;46.70;;;;;;4978163;28;20497;-56
2023/01/24 00:38:22;;;;;;;18.67;11.57;;;0.60;45.90;;;;;;4974940;28;20571;-55
2023/01/24 00:40:49;;;;;;;21.37;10.83;;;0.50;53.00;;;;;;4973706;28;20573;-57
2023/01/24 00:43:16;;;;;;;12.63;10.17;;;0.50;53.20;;;;;;4971880;28;20527;-55
2023/01/24 00:45:44;;;;;;;17.60;10.40;;;0.50;50.90;;;;;;4962394;28;20464;-56
2023/01/24 00:48:11;;;;;;;14.67;9.80;;;0.60;52.80;;;;;;4967632;28;20563;-56
2023/01/24 00:50:39;;;;;;;12.50;9.50;;;0.60;53.30;;;;;;4970953;28;21054;-56
2023/01/24 00:53:06;;;;;;;17.50;10.43;;;0.60;54.10;;;;;;4973742;28;20556;-55
2023/01/24 00:55:33;;;;;;;14.20;9.90;;;0.60;55.40;;;;;;4971050;28;20516;-56
2023/01/24 00:57:59;;;;;;;16.50;10.07;;;0.60;57.10;;;;;;4968715;28;20488;-56
2023/01/24 01:00:26;;;;;;;13.57;9.63;;;0.60;56.90;;;;;;4966702;28;20468;-56
2023/01/24 01:02:53;;;;;;;16.27;9.70;;;0.60;53.90;;;;;;4973657;28;20554;-56
2023/01/24 01:05:20;;;;;;;13.40;9.20;;;0.50;60.50;;;;;;4971445;28;20592;-56
2023/01/24 01:07:47;;;;;;;21.40;10.17;;;0.50;58.40;;;;;;4967841;28;20582;-56
2023/01/24 01:10:14;;;;;;;16.33;8.60;;;0.50;60.10;;;;;;4970235;28;20555;-55
2023/01/24 01:12:41;;;;;;;20.00;10.20;;;0.50;60.30;;;;;;4971360;28;20579;-57
2023/01/24 01:15:08;;;;;;;12.50;8.50;;;0.60;60.60;;;;;;4959919;28;20556;-56
2023/01/24 01:17:35;;;;;;;12.87;8.97;;;0.50;58.80;;;;;;4966885;28;20595;-56
2023/01/24 01:20:02;;;;;;;14.77;9.80;;;0.50;62.20;;;;;;4968193;28;20469;-56
2023/01/24 01:22:28;;;;;;;13.10;8.80;;;0.50;63.90;;;;;;4970700;28;20460;-57
2023/01/24 01:24:56;;;;;;;13.27;9.37;;;0.50;63.70;;;;;;4970268;28;20552;-54
2023/01/24 01:27:22;;;;;;;11.33;8.60;;;0.40;62.90;;;;;;4971573;28;20564;-56
2023/01/24 01:29:49;;;;;;;11.30;8.40;;;0.40;62.40;;;;;;4970914;28;21054;-56
2023/01/24 01:32:16;;;;;;;14.00;9.40;;;0.40;60.10;;;;;;4969777;28;20615;-56
2023/01/24 01:34:42;;;;;;;11.50;7.83;;;0.50;59.40;;;;;;4970160;28;20555;-56
2023/01/24 01:37:09;;;;;;;17.90;9.57;;;0.40;65.70;;;;;;4970652;28;20469;-56
2023/01/24 01:39:35;;;;;;;12.70;8.23;;;0.40;63.70;;;;;;4970105;28;20547;-56
2023/01/24 01:42:03;;;;;;;12.97;9.70;;;0.40;63.50;;;;;;4971913;28;20502;-56
2023/01/24 01:44:42;;;;;;;11.47;8.47;;;0.40;64.20;;;;;;4971691;28;20552;-55
2023/01/24 01:47:18;;;;;;;19.60;9.50;;;0.40;67.50;;;;;;4968289;28;20468;-52
2023/01/24 01:49:50;;;;;;;9.50;7.63;;;0.40;69.00;;;;;;4980324;28;20492;-51
2023/01/24 01:52:18;;;;;;;12.47;8.03;;;0.40;71.40;;;;;;4968892;28;20529;-51
2023/01/24 01:54:47;;;;;;;9.30;7.47;;;0.40;74.50;;;;;;4972536;28;20469;-53
2023/01/24 01:57:19;;;;;;;13.87;8.07;;;0.40;79.00;;;;;;4971322;28;20502;-52
2023/01/24 01:59:51;;;;;;;10.30;7.80;;;0.40;74.50;;;;;;4969868;28;20464;-51
2023/01/24 02:02:20;;;;;;;8.87;7.33;;;0.40;70.10;;;;;;4972667;28;22047;-51
2023/01/24 02:04:52;;;;;;;16.90;9.57;;;0.40;73.90;;;;;;4974476;28;20544;-51
2023/01/24 02:07:22;;;;;;;12.00;7.83;;;0.40;82.00;;;;;;4971634;28;20903;-51
2023/01/24 02:09:52;;;;;;;7.43;6.77;;;0.40;84.90;;;;;;4968187;28;20504;-52
2023/01/24 02:12:23;;;;;;;8.80;7.30;;;0.40;86.00;;;;;;4966638;28;20485;-53
2023/01/24 02:17:37;;;;;;;8.30;6.73;;;0.30;85.70;;;;;;4968710;28;20468;-51
2023/01/24 02:20:17;;;;;;;8.00;7.10;;;0.40;81.10;;;;;;4969161;28;20469;-53
2023/01/24 02:22:56;;;;;;;7.60;6.70;;;0.40;83.70;;;;;;4968410;28;20496;-51
2023/01/24 02:25:27;;;;;;;6.70;6.00;;;0.40;85.60;;;;;;4963809;28;20466;-52
2023/01/24 02:27:58;;;;;;;6.57;5.97;;;0.30;87.70;;;;;;4964729;28;21010;-52
2023/01/24 02:30:25;;;;;;;7.80;6.40;;;0.30;90.90;;;;;;4967487;28;20464;-52
2023/01/24 02:32:51;;;;;;;6.47;5.87;;;0.30;91.30;;;;;;4967404;28;20521;-52
2023/01/24 02:35:26;;;;;;;7.20;6.43;;;0.30;97.80;;;;;;4967868;28;20571;-53
2023/01/24 02:37:52;;;;;;;7.10;6.40;;;0.30;99.90;;;;;;4963144;28;21253;-52
2023/01/24 02:40:19;;;;;;;7.57;6.87;;;0.20;97.30;;;;;;4968548;28;20500;-52
2023/01/24 02:42:47;;;;;;;7.07;6.20;;;0.20;99.90;;;;;;4969378;28;20488;-52
2023/01/24 02:45:20;;;;;;;8.60;6.33;;;0.10;99.90;;;;;;4969493;28;20558;-54
2023/01/24 02:47:48;;;;;;;6.67;6.07;;;0.20;99.90;;;;;;4965382;28;20515;-52
2023/01/24 02:50:15;;;;;;;7.73;6.80;;;0.20;97.80;;;;;;4967186;28;20492;-53
2023/01/24 02:55:26;;;;;;;6.63;5.60;;;0.10;99.90;;;;;;4968009;28;20456;-53
2023/01/24 02:58:07;;;;;;;6.80;6.10;;;0.10;99.90;;;;;;4970843;28;20488;-52
2023/01/24 03:00:36;;;;;;;6.40;5.90;;;0.20;96.70;;;;;;4971830;28;20939;-52
2023/01/24 03:03:03;;;;;;;6.60;6.10;;;0.20;96.90;;;;;;4971820;28;20878;-52
2023/01/24 03:05:39;;;;;;;6.93;6.23;;;0.20;93.90;;;;;;4970449;28;20483;-53
2023/01/24 03:08:07;;;;;;;6.77;6.17;;;0.20;99.90;;;;;;4972792;28;20468;-53
2023/01/24 03:10:34;;;;;;;6.53;5.93;;;0.20;99.40;;;;;;4973114;28;20543;-53
2023/01/24 03:34:57;;;;;;;5.90;5.37;;;0.00;99.90;;;;;;4970292;28;22650;-51
2023/01/24 03:40:08;;;;;;;6.47;5.97;;;0.00;99.90;;;;;;4964123;28;20841;-53
2023/01/24 03:42:38;;;;;;;6.67;6.13;;;0.00;99.90;;;;;;4973305;28;20629;-51
2023/01/24 03:45:15;;;;;;;6.90;6.40;;;0.00;99.90;;;;;;4970390;28;20462;-53
2023/01/24 03:47:54;;;;;;;8.13;7.33;;;0.00;99.90;;;;;;4975072;28;21040;-53
2023/01/24 03:53:06;;;;;;;7.00;6.40;;;0.00;99.90;;;;;;4974944;28;20607;-53
2023/01/24 03:55:33;;;;;;;7.57;6.50;;;0.00;99.90;;;;;;4959302;28;20499;-51
2023/01/24 03:58:00;;;;;;;6.30;5.80;;;0.00;99.90;;;;;;4990474;28;20469;-53
2023/01/24 04:00:27;;;;;;;7.57;6.87;;;0.00;99.90;;;;;;4995177;28;20445;-52
2023/01/24 04:02:55;;;;;;;6.70;6.10;;;0.00;99.90;;;;;;4985506;28;20454;-53
2023/01/24 04:05:22;;;;;;;7.33;6.63;;;0.00;99.90;;;;;;4974594;28;20540;-52
2023/01/24 04:07:49;;;;;;;7.60;6.80;;;0.00;99.90;;;;;;4973754;28;20485;-52
2023/01/24 04:10:16;;;;;;;7.00;6.40;;;0.00;99.90;;;;;;4972044;28;20879;-52
2023/01/24 04:12:43;;;;;;;7.07;6.53;;;0.10;99.90;;;;;;4973164;28;20562;-52
2023/01/24 04:15:16;;;;;;;7.13;6.43;;;0.10;99.90;;;;;;4971639;28;20599;-52
2023/01/24 04:17:43;;;;;;;8.60;7.03;;;0.10;99.90;;;;;;4973547;28;20499;-52
2023/01/24 04:20:12;;;;;;;5.43;5.03;;;0.00;99.90;;;;;;4974200;28;20493;-53
2023/01/24 04:22:38;;;;;;;7.30;6.60;;;0.00;99.90;;;;;;4975692;28;20535;-52
2023/01/24 04:25:06;;;;;;;8.87;6.80;;;0.00;99.90;;;;;;4964401;28;20535;-53
2023/01/24 04:27:32;;;;;;;7.47;6.13;;;0.00;99.90;;;;;;4973770;28;20554;-52
2023/01/24 04:29:59;;;;;;;7.73;6.93;;;0.00;99.90;;;;;;4975290;28;21036;-52
2023/01/24 04:32:25;;;;;;;7.40;6.80;;;0.00;99.90;;;;;;4975523;28;20476;-52
2023/01/24 04:34:52;;;;;;;8.57;7.50;;;0.00;99.90;;;;;;4975473;28;20966;-52
2023/01/24 04:37:20;;;;;;;8.90;6.70;;;0.00;99.90;;;;;;4969466;28;20485;-53
2023/01/24 04:39:46;;;;;;;7.50;6.80;;;0.00;99.90;;;;;;4965958;28;20446;-51
2023/01/24 04:42:13;;;;;;;7.30;6.60;;;0.00;99.90;;;;;;4962182;28;20578;-52
2023/01/24 04:44:39;;;;;;;7.57;6.83;;;0.00;99.90;;;;;;4974605;28;20892;-53
2023/01/24 04:47:06;;;;;;;6.97;6.07;;;0.00;99.90;;;;;;4975521;28;20998;-53
2023/01/24 04:49:32;;;;;;;9.00;7.10;;;-0.10;99.90;;;;;;4973730;28;21036;-52
2023/01/24 04:51:59;;;;;;;7.83;6.97;;;-0.10;99.90;;;;;;4968719;28;20959;-53
2023/01/24 04:54:27;;;;;;;7.70;6.93;;;-0.10;99.90;;;;;;4969386;28;20985;-53
2023/01/24 04:56:53;;;;;;;6.80;6.13;;;0.00;99.90;;;;;;4974331;28;20460;-51
2023/01/24 04:59:20;;;;;;;8.13;6.70;;;-0.10;99.90;;;;;;4974156;28;20523;-52
2023/01/24 05:01:46;;;;;;;7.37;6.60;;;-0.10;99.90;;;;;;4973080;28;20449;-51
2023/01/24 05:04:14;;;;;;;6.57;6.07;;;-0.10;99.90;;;;;;4974469;28;20478;-51
2023/01/24 05:06:41;;;;;;;8.40;6.87;;;-0.10;99.90;;;;;;4974793;28;20461;-52
2023/01/24 05:09:07;;;;;;;8.17;7.47;;;0.00;99.90;;;;;;4973037;28;20619;-51
2023/01/24 05:11:36;;;;;;;10.70;7.37;;;-0.10;99.90;;;;;;4968156;28;20488;-52
2023/01/24 05:14:03;;;;;;;8.23;6.40;;;-0.10;99.90;;;;;;4974163;28;21028;-53
2023/01/24 05:16:29;;;;;;;8.37;6.60;;;0.00;99.90;;;;;;4973429;28;20504;-52
2023/01/24 05:18:56;;;;;;;7.93;7.13;;;-0.10;99.90;;;;;;4971942;28;20516;-52
2023/01/24 05:21:22;;;;;;;7.50;6.30;;;-0.10;99.90;;;;;;4965346;28;20484;-53
2023/01/24 05:23:51;;;;;;;8.90;6.73;;;-0.10;99.90;;;;;;4968683;28;20466;-52
2023/01/24 05:26:17;;;;;;;7.37;6.77;;;-0.10;99.90;;;;;;4972140;28;20548;-52
2023/01/24 05:28:45;;;;;;;7.00;6.40;;;-0.10;99.90;;;;;;4973928;28;20970;-52
2023/01/24 05:31:12;;;;;;;9.17;6.63;;;-0.10;99.90;;;;;;4967176;28;20887;-52
2023/01/24 05:33:38;;;;;;;6.23;5.73;;;-0.10;99.90;;;;;;4973066;28;20583;-52
2023/01/24 05:36:07;;;;;;;10.27;6.50;;;-0.10;99.90;;;;;;4971333;28;20519;-52
2023/01/24 05:38:34;;;;;;;8.27;7.00;;;0.00;99.90;;;;;;4972579;28;20540;-52
2023/01/24 05:41:03;;;;;;;8.30;7.10;;;0.00;99.90;;;;;;4973262;28;20465;-51
2023/01/24 05:43:30;;;;;;;9.33;7.10;;;0.00;99.90;;;;;;4972340;28;20484;-51
2023/01/24 05:46:03;;;;;;;7.37;6.60;;;0.00;99.90;;;;;;4972120;28;20516;-51
2023/01/24 05:48:30;;;;;;;9.10;7.50;;;0.00;99.90;;;;;;4971036;28;20536;-52
2023/01/24 05:50:58;;;;;;;7.53;6.73;;;0.00;99.90;;;;;;4972562;28;20505;-51
2023/01/24 05:53:25;;;;;;;9.50;8.13;;;0.00;99.90;;;;;;4972632;28;20492;-52
2023/01/24 05:55:55;;;;;;;9.33;7.63;;;0.00;99.90;;;;;;4973085;28;20804;-52
2023/01/24 05:58:22;;;;;;;7.30;6.60;;;-0.10;99.90;;;;;;4964175;28;20517;-52
2023/01/24 06:00:48;;;;;;;7.97;7.30;;;-0.10;99.90;;;;;;4966119;28;20962;-51
2023/01/24 06:03:16;;;;;;;7.80;6.67;;;0.00;99.90;;;;;;4973181;28;20537;-53
2023/01/24 06:05:46;;;;;;;7.40;6.70;;;0.00;99.90;;;;;;4972616;28;20540;-53
2023/01/24 06:08:13;;;;;;;6.47;5.87;;;0.00;99.90;;;;;;4971197;28;20592;-52
2023/01/24 06:10:39;;;;;;;10.37;6.77;;;0.00;99.90;;;;;;4971778;28;20504;-53
2023/01/24 06:13:06;;;;;;;7.60;6.77;;;0.00;99.90;;;;;;4973186;28;20485;-52
2023/01/24 06:15:32;;;;;;;9.27;6.93;;;0.00;99.90;;;;;;4989268;28;20452;-54
2023/01/24 06:17:59;;;;;;;9.50;6.37;;;0.00;99.90;;;;;;4990741;28;20489;-53
2023/01/24 06:20:27;;;;;;;6.20;5.70;;;0.00;99.90;;;;;;4989472;28;20465;-53
2023/01/24 06:22:56;;;;;;;7.70;6.90;;;-0.10;99.90;;;;;;4973092;28;20437;-52
2023/01/24 06:25:25;;;;;;;8.53;6.47;;;-0.10;99.90;;;;;;4960400;28;20469;-53
2023/01/24 06:27:52;;;;;;;7.33;6.63;;;-0.10;99.90;;;;;;4965281;28;20840;-51
2023/01/24 06:30:20;;;;;;;9.80;6.77;;;0.00;99.90;;;;;;4969087;28;20488;-51
2023/01/24 06:33:11;;;;;;;8.23;6.40;;;0.00;99.90;;;;;;4971703;28;20583;-52
2023/01/24 06:35:50;;;;;;;9.83;7.17;;;0.00;99.90;;;;;;4971854;28;20524;-52
2023/01/24 06:38:20;;;;;;;7.67;6.87;;;0.00;99.90;;;;;;4968283;28;20528;-52
2023/01/24 06:40:49;;;;;;;8.27;7.40;;;0.00;99.90;;;;;;4971331;28;20474;-51
2023/01/24 06:43:16;;;;;;;7.90;6.43;;;0.00;99.90;;;;;;4967483;28;20551;-52
2023/01/24 06:45:43;;;;;;;9.73;7.17;;;0.00;99.90;;;;;;4967315;28;20559;-51
2023/01/24 06:48:09;;;;;;;9.47;6.73;;;0.10;99.90;;;;;;4967729;28;20488;-51
2023/01/24 06:50:36;;;;;;;10.83;8.23;;;0.00;99.90;;;;;;4968287;28;20469;-52
2023/01/24 06:53:04;;;;;;;10.73;8.60;;;0.10;99.90;;;;;;4971343;28;21014;-52
2023/01/24 06:55:31;;;;;;;15.07;9.40;;;0.00;99.90;;;;;;4971782;28;20496;-51
2023/01/24 06:57:59;;;;;;;13.93;8.90;;;0.00;99.90;;;;;;4969956;28;20543;-51
2023/01/24 07:00:26;;;;;;;17.00;9.30;;;0.10;99.90;;;;;;4968315;28;20464;-52
2023/01/24 07:02:59;;;;;;;12.70;9.33;;;0.20;99.90;;;;;;4964424;28;20551;-53
2023/01/24 07:05:26;;;;;;;15.30;10.90;;;0.20;99.90;;;;;;4966846;28;20473;-53
2023/01/24 07:07:53;;;;;;;14.97;10.10;;;0.10;99.90;;;;;;4964332;28;20586;-52
2023/01/24 07:10:21;;;;;;;16.20;10.70;;;0.10;99.90;;;;;;4971035;28;20465;-52
2023/01/24 07:12:48;;;;;;;15.80;10.13;;;0.20;99.90;;;;;;4969271;28;20535;-52
2023/01/24 07:15:14;;;;;;;20.10;10.17;;;0.10;99.90;;;;;;4973465;28;20456;-52
2023/01/24 07:17:42;;;;;;;15.87;10.37;;;0.10;99.90;;;;;;4974301;28;20515;-51
2023/01/24 07:20:10;;;;;;;18.40;10.50;;;0.10;99.90;;;;;;4977116;28;20445;-52
2023/01/24 07:22:37;;;;;;;16.97;11.07;;;0.10;99.90;;;;;;4975739;28;20464;-52
2023/01/24 07:25:05;;;;;;;18.90;11.80;;;0.10;99.90;;;;;;4972591;28;20543;-52
2023/01/24 07:27:34;;;;;;;26.00;13.00;;;0.10;99.90;;;;;;4972051;28;20908;-52
2023/01/24 07:30:00;;;;;;;22.10;12.93;;;0.10;99.90;;;;;;4969562;28;20507;-52
2023/01/24 07:32:27;;;;;;;29.43;13.73;;;0.10;99.90;;;;;;4973592;28;20504;-52
2023/01/24 07:34:53;;;;;;;22.23;13.00;;;0.10;99.90;;;;;;4973915;28;20464;-58
2023/01/24 07:37:21;;;;;;;27.00;13.47;;;0.10;99.90;;;;;;4973294;28;20940;-52
2023/01/24 07:39:48;;;;;;;26.87;15.07;;;0.20;99.90;;;;;;4974039;28;20547;-52
2023/01/24 07:42:14;;;;;;;27.93;14.87;;;0.10;99.90;;;;;;4980570;28;20496;-52
2023/01/24 07:44:42;;;;;;;34.90;15.77;;;0.10;99.90;;;;;;4986598;28;20468;-53
2023/01/24 07:47:08;;;;;;;33.77;16.03;;;0.10;99.90;;;;;;4981376;23;20571;-56
2023/01/24 07:49:35;;;;;;;31.50;16.30;;;0.10;99.90;;;;;;4949538;28;20489;-56
2023/01/24 07:52:01;;;;;;;31.58;15.57;;;0.20;99.90;;;;;;4949103;28;20480;-56
2023/01/24 07:54:28;;;;;;;33.80;16.47;;;0.10;99.90;;;;;;4954598;28;20219;-55
2023/01/24 07:56:55;;;;;;;38.73;18.00;;;0.20;99.90;;;;;;4951389;28;20540;-55
2023/01/24 07:59:21;;;;;;;41.20;18.20;;;0.10;99.90;;;;;;4950051;28;20469;-54
2023/01/24 08:01:49;;;;;;;38.97;18.13;;;0.10;99.90;;;;;;4954375;28;20465;-56
2023/01/24 08:04:16;;;;;;;39.30;18.83;;;0.20;99.90;;;;;;4945202;29;20461;-56
2023/01/24 08:07:16;;;;;;;47.47;21.83;;;0.20;99.90;;;;;;4951853;28;21849;-55
2023/01/24 08:09:29;;;;;;;48.60;22.10;;;0.20;99.90;;;;;;4946771;28;20931;-58
2023/01/24 08:11:56;;;;;;;57.83;20.60;;;0.10;99.90;;;;;;4953491;28;20522;-54
2023/01/24 08:14:23;;;;;;;52.80;22.33;;;0.10;99.90;;;;;;4953193;28;20572;-55
2023/01/24 08:16:51;;;;;;;54.60;22.73;;;0.20;99.90;;;;;;4948523;28;20488;-54
2023/01/24 08:19:17;;;;;;;55.80;23.57;;;0.20;99.90;;;;;;4953767;28;20873;-55
2023/01/24 08:21:44;;;;;;;58.93;24.30;;;0.20;99.90;;;;;;4946639;28;20509;-56
2023/01/24 08:24:11;;;;;;;63.33;26.33;;;0.30;99.90;;;;;;4954778;28;20964;-55
2023/01/24 08:26:37;;;;;;;61.10;25.80;;;0.30;99.90;;;;;;4950602;28;20619;-56
2023/01/24 08:29:04;;;;;;;64.60;25.87;;;0.40;99.90;;;;;;4953834;28;20886;-56
2023/01/24 08:31:30;;;;;;;67.87;25.87;;;0.20;99.90;;;;;;4955284;28;20900;-57
2023/01/24 08:33:58;;;;;;;73.90;28.43;;;0.30;99.90;;;;;;4955032;28;21027;-55
2023/01/24 08:36:25;;;;;;;66.73;27.97;;;0.30;99.90;;;;;;4951717;28;20521;-56
2023/01/24 08:38:51;;;;;;;65.13;28.43;;;0.30;99.90;;;;;;4952808;28;21526;-56
2023/01/24 08:41:18;;;;;;;69.57;28.60;;;0.40;99.90;;;;;;4951803;28;20497;-57
2023/01/24 08:43:44;;;;;;;70.90;28.73;;;0.40;99.90;;;;;;4952432;28;20472;-56
2023/01/24 08:46:11;;;;;;;77.73;30.33;;;0.40;99.90;;;;;;4949755;29;20469;-55
2023/01/24 08:48:37;;;;;;;71.70;28.30;;;0.40;99.90;;;;;;4950367;28;20529;-55
2023/01/24 08:51:06;;;;;;;91.40;31.77;;;0.40;99.90;;;;;;4951609;28;20888;-54
2023/01/24 08:53:33;;;;;;;78.97;30.20;;;0.40;99.90;;;;;;4954278;28;20524;-57
2023/01/24 08:56:00;;;;;;;72.77;29.77;;;0.40;99.90;;;;;;4951868;28;20956;-55
2023/01/24 08:58:27;;;;;;;76.30;31.10;;;0.50;99.90;;;;;;4943835;28;21006;-55
2023/01/24 09:00:53;;;;;;;71.97;28.73;;;0.40;99.90;;;;;;4953153;28;21233;-56
2023/01/24 09:03:20;;;;;;;74.20;29.00;;;0.50;99.90;;;;;;4951495;28;20457;-56
2023/01/24 09:05:47;;;;;;;78.67;31.30;;;0.50;99.90;;;;;;4951331;28;20521;-56
2023/01/24 09:08:15;;;;;;;74.10;29.20;;;0.50;99.90;;;;;;4945957;28;20554;-55
2023/01/24 09:10:41;;;;;;;79.47;30.27;;;0.60;99.90;;;;;;4949756;28;20523;-56
2023/01/24 09:13:08;;;;;;;84.60;31.57;;;0.60;99.90;;;;;;4952206;28;20468;-54
2023/01/24 09:15:35;;;;;;;75.97;28.00;;;0.60;99.90;;;;;;4948401;28;20517;-55
2023/01/24 09:18:01;;;;;;;87.03;31.37;;;0.60;99.90;;;;;;4950458;28;20974;-55
2023/01/24 09:20:28;;;;;;;77.67;29.67;;;0.70;99.90;;;;;;4951224;28;20861;-55
2023/01/24 09:22:54;;;;;;;91.73;33.03;;;0.70;99.90;;;;;;4944997;28;20520;-56
2023/01/24 09:25:23;;;;;;;78.40;30.07;;;0.60;99.90;;;;;;4947937;28;20493;-53
2023/01/24 09:27:54;;;;;;;87.20;32.83;;;0.60;99.90;;;;;;4946738;28;20576;-56
2023/01/24 09:30:20;;;;;;;89.70;32.40;;;0.70;99.90;;;;;;4946690;28;20540;-57
2023/01/24 09:32:47;;;;;;;84.50;32.40;;;0.60;99.90;;;;;;4953138;28;20508;-55
2023/01/24 09:35:14;;;;;;;90.40;31.53;;;0.70;99.90;;;;;;4950924;28;20522;-56
2023/01/24 09:37:42;;;;;;;76.63;28.97;;;0.70;99.90;;;;;;4950189;28;20969;-54
2023/01/24 09:40:19;;;;;;;80.20;31.70;;;0.80;99.90;;;;;;4943573;28;20972;-55
2023/01/24 09:42:57;;;;;;;91.30;30.23;;;0.80;99.90;;;;;;4952626;29;20858;-57
2023/01/24 09:45:30;;;;;;;88.93;32.67;;;0.80;99.90;;;;;;4947035;28;20937;-54
2023/01/24 09:48:00;;;;;;;81.90;32.27;;;0.90;99.90;;;;;;4947969;28;20674;-57
2023/01/24 09:50:35;;;;;;;89.33;31.47;;;0.90;99.90;;;;;;4945839;28;21542;-56
2023/01/24 09:53:02;;;;;;;77.73;29.60;;;0.90;99.90;;;;;;4948473;28;20555;-54
2023/01/24 09:55:33;;;;;;;86.57;30.00;;;0.90;99.90;;;;;;4950617;28;20920;-54
2023/01/24 09:58:06;;;;;;;79.23;30.30;;;1.00;99.90;;;;;;4946961;28;20540;-56
2023/01/24 10:00:36;;;;;;;87.13;31.80;;;0.80;99.90;;;;;;4951766;28;20461;-56
2023/01/24 10:03:03;;;;;;;84.27;29.53;;;0.90;99.90;;;;;;4947887;28;20469;-54
2023/01/24 10:05:35;;;;;;;68.83;30.03;;;0.90;99.90;;;;;;4951773;28;20466;-56
2023/01/24 10:08:13;;;;;;;88.33;31.20;;;1.00;99.90;;;;;;4944226;28;20486;-56
2023/01/24 10:10:44;;;;;;;83.13;30.73;;;0.90;99.90;;;;;;4945979;28;20567;-57
2023/01/24 10:13:26;;;;;;;76.70;29.60;;;0.90;99.90;;;;;;4944971;28;20517;-57
2023/01/24 10:16:01;;;;;;;76.43;29.17;;;1.00;99.90;;;;;;4942458;28;20984;-55
2023/01/24 10:18:58;;;;;;;71.43;28.73;;;1.10;99.90;;;;;;4939308;28;20487;-54
2023/01/24 10:22:04;;;;;;;79.07;28.00;;;1.10;99.90;;;;;;4944508;28;20993;-56
2023/01/24 10:24:36;;;;;;;93.50;29.23;;;1.10;99.90;;;;;;4945162;28;20530;-56
2023/01/24 10:27:13;;;;;;;81.37;30.53;;;1.10;99.90;;;;;;4951513;28;20545;-54
2023/01/24 10:29:43;;;;;;;83.00;29.83;;;1.10;99.90;;;;;;4951451;28;20879;-56
2023/01/24 10:32:14;;;;;;;90.03;32.47;;;1.10;99.90;;;;;;4951770;28;20478;-55
2023/01/24 10:34:44;;;;;;;87.10;31.40;;;1.10;99.90;;;;;;4953053;28;20549;-54
2023/01/24 10:37:21;;;;;;;77.63;27.20;;;1.10;99.90;;;;;;4951783;28;21089;-57
2023/01/24 10:39:48;;;;;;;78.47;29.40;;;1.10;99.90;;;;;;4950647;28;20548;-55
2023/01/24 10:42:22;;;;;;;77.00;28.90;;;1.10;99.90;;;;;;4953138;28;20540;-55
2023/01/24 10:44:51;;;;;;;74.00;28.20;;;1.20;99.90;;;;;;4952541;28;20493;-56
2023/01/24 10:47:42;;;;;;;74.40;27.97;;;1.30;99.90;;;;;;4951895;28;20501;-54
2023/01/24 10:50:11;;;;;;;74.73;29.60;;;1.30;99.90;;;;;;4944155;28;20473;-56
2023/01/24 10:52:38;;;;;;;88.00;29.57;;;1.30;99.90;;;;;;4952144;28;20493;-56
2023/01/24 10:55:25;;;;;;;85.33;28.53;;;1.30;99.90;;;;;;4949703;28;20496;-55
2023/01/24 10:57:53;;;;;;;77.07;28.93;;;1.30;99.90;;;;;;4945041;28;20493;-56
2023/01/24 11:00:29;;;;;;;74.10;29.37;;;1.30;99.90;;;;;;4950420;28;21027;-56
2023/01/24 11:02:57;;;;;;;81.80;28.53;;;1.30;99.90;;;;;;4946925;28;20496;-55
2023/01/24 11:05:25;;;;;;;72.23;28.60;;;1.20;99.90;;;;;;4951671;28;21018;-54
2023/01/24 11:07:54;;;;;;;76.43;27.90;;;1.30;99.90;;;;;;4950796;28;20493;-57
2023/01/24 11:10:23;;;;;;;83.60;28.00;;;1.30;99.90;;;;;;4953236;28;20483;-54
2023/01/24 11:12:53;;;;;;;73.87;27.40;;;1.30;99.90;;;;;;4949877;28;20474;-56
2023/01/24 11:15:25;;;;;;;76.43;26.70;;;1.30;99.90;;;;;;4951569;28;21004;-54
2023/01/24 11:17:56;;;;;;;82.97;27.17;;;1.40;99.90;;;;;;4952123;28;20518;-55
2023/01/24 11:20:29;;;;;;;70.60;27.00;;;1.30;99.90;;;;;;4951409;28;21039;-56
2023/01/24 11:23:04;;;;;;;81.33;27.73;;;1.40;99.90;;;;;;4948836;28;20480;-55
2023/01/24 11:25:31;;;;;;;77.90;28.57;;;1.40;99.90;;;;;;4950947;28;20549;-54
2023/01/24 11:27:59;;;;;;;70.40;26.23;;;1.40;99.90;;;;;;4951330;28;20494;-56
2023/01/24 11:30:28;;;;;;;84.63;28.37;;;1.30;99.90;;;;;;4950438;28;20508;-55
2023/01/24 11:33:08;;;;;;;70.53;25.33;;;1.40;99.90;;;;;;4952337;28;20834;-56
2023/01/24 11:35:38;;;;;;;59.73;24.57;;;1.50;99.90;;;;;;4950997;28;20529;-56
2023/01/24 11:38:22;;;;;;;66.63;25.00;;;1.50;99.90;;;;;;4952342;28;20900;-55
2023/01/24 11:41:07;;;;;;;73.00;27.20;;;1.50;99.90;;;;;;4951937;28;20524;-57
2023/01/24 11:43:48;;;;;;;73.00;26.60;;;1.50;99.90;;;;;;4947861;28;20467;-56
2023/01/24 11:46:25;;;;;;;62.63;25.70;;;1.50;99.90;;;;;;4950198;28;21265;-55
2023/01/24 11:48:56;;;;;;;78.73;28.23;;;1.50;99.90;;;;;;4944114;28;20580;-57
2023/01/24 11:51:36;;;;;;;66.33;25.73;;;1.50;99.90;;;;;;4950012;28;20469;-57
2023/01/24 11:54:19;;;;;;;64.33;25.77;;;1.40;99.90;;;;;;4950535;28;20995;-56
2023/01/24 11:56:54;;;;;;;63.17;25.73;;;1.60;99.90;;;;;;4941923;29;20503;-55
2023/01/24 11:59:38;;;;;;;66.03;25.13;;;1.60;99.90;;;;;;4946127;29;21034;-54
2023/01/24 12:02:29;;;;;;;57.90;23.97;;;1.60;99.90;;;;;;4948708;29;20458;-54
2023/01/24 12:05:16;;;;;;;65.57;24.60;;;1.60;99.90;;;;;;4956178;28;20485;-54
2023/01/24 12:07:53;;;;;;;72.47;26.27;;;1.50;99.90;;;;;;4954874;28;21023;-55
2023/01/24 12:10:28;;;;;;;58.83;24.27;;;1.60;99.90;;;;;;4956440;28;20449;-55
2023/01/24 12:13:03;;;;;;;56.43;23.97;;;1.50;99.90;;;;;;4955350;28;20456;-55
2023/01/24 12:15:39;;;;;;;60.07;23.27;;;1.50;99.90;;;;;;4953573;28;20571;-56
2023/01/24 12:18:20;;;;;;;54.60;21.97;;;1.50;99.90;;;;;;4953368;28;20486;-55
2023/01/24 12:20:57;;;;;;;50.83;22.07;;;1.60;99.90;;;;;;4954756;28;20818;-58
2023/01/24 12:23:29;;;;;;;60.13;23.00;;;1.60;99.90;;;;;;4953348;28;20971;-55
2023/01/24 12:26:00;;;;;;;56.83;22.80;;;1.60;99.90;;;;;;4948052;29;20827;-55
2023/01/24 12:28:32;;;;;;;65.30;22.80;;;1.70;99.90;;;;;;4953311;28;21011;-58
2023/01/24 12:31:02;;;;;;;53.33;20.93;;;1.70;99.90;;;;;;4955801;28;20485;-57
2023/01/24 12:33:34;;;;;;;57.70;22.47;;;1.70;99.90;;;;;;4949732;28;21026;-56
2023/01/24 12:36:06;;;;;;;48.20;20.27;;;1.80;99.90;;;;;;4952711;28;20552;-55
2023/01/24 12:38:37;;;;;;;60.73;23.40;;;1.80;99.90;;;;;;4953593;28;20533;-54
2023/01/24 12:41:13;;;;;;;62.97;20.10;;;1.90;99.90;;;;;;4948376;28;20847;-56
2023/01/24 12:43:52;;;;;;;50.57;21.07;;;1.90;99.90;;;;;;4958520;28;20478;-58
2023/01/24 12:46:25;;;;;;;48.97;20.20;;;1.80;99.90;;;;;;4950591;28;20881;-55
2023/01/24 12:48:59;;;;;;;53.10;19.77;;;1.80;99.90;;;;;;4952390;28;20830;-55
2023/01/24 12:51:30;;;;;;;50.30;20.20;;;1.90;99.90;;;;;;4947672;28;20462;-55
2023/01/24 12:54:03;;;;;;;49.63;20.90;;;1.80;99.90;;;;;;4951862;28;20860;-56
2023/01/24 12:56:38;;;;;;;55.40;20.93;;;1.90;99.90;;;;;;4954154;28;20544;-54
2023/01/24 12:59:04;;;;;;;51.70;19.80;;;1.90;99.90;;;;;;4953114;28;20516;-55
2023/01/24 13:01:43;;;;;;;50.23;19.03;;;1.90;99.90;;;;;;4955062;28;20457;-55
2023/01/24 13:04:21;;;;;;;43.77;18.63;;;1.90;99.90;;;;;;4953068;28;20508;-55
2023/01/24 13:06:59;;;;;;;38.40;18.60;;;1.90;99.90;;;;;;4958772;28;20481;-56
2023/01/24 13:09:34;;;;;;;41.73;18.23;;;2.00;99.90;;;;;;4953308;28;20500;-55
2023/01/24 13:12:05;;;;;;;43.77;19.07;;;1.90;99.90;;;;;;4954020;28;20453;-56
2023/01/24 13:14:36;;;;;;;41.67;18.03;;;1.80;99.90;;;;;;4950918;28;20552;-55
2023/01/24 13:17:22;;;;;;;41.73;18.87;;;1.90;99.90;;;;;;4955280;28;20475;-57
2023/01/24 13:20:04;;;;;;;40.03;17.50;;;1.90;99.90;;;;;;4955042;29;20493;-56
2023/01/24 13:22:42;;;;;;;43.27;17.63;;;1.90;99.90;;;;;;4953160;28;20454;-57
2023/01/24 13:25:35;;;;;;;40.40;16.60;;;1.80;99.90;;;;;;4949908;28;20464;-55
2023/01/24 13:28:08;;;;;;;40.67;16.30;;;1.80;99.90;;;;;;4952166;28;20485;-57
2023/01/24 13:30:43;;;;;;;37.67;16.20;;;1.80;99.90;;;;;;4952783;28;20470;-55